Misawa Air Base, Japan

7:23 PM JST on August 28, 2016 (GMT +0900)
DUBS on Blue Ridge | | Change Station

Elev 157 ft 40.69 °N, 141.36 °E | Updated 12 seconds ago

Scattered Clouds
Scattered Clouds
66.4 °F
Feels Like 66.4 °F
N
0.0
Wind Variable Wind from SE
Gusts 0.0 mph

Today
High -- | Low -- °F
--% Chance of Precip.
Yesterday
High -- | Low -- °F
Precip. -- in
Pressure 29.68 in
Visibility 6.2 miles
Clouds Few 1200 ft
Scattered Clouds 9000 ft
Dew Point 66 °F
Humidity 99%
Rainfall 0.15 in
Snow Depth Not available.
4:57 AM 6:13 PM
Waning Crescent, 17% visible
METAR RJSA 281000Z 04011KT 9999 FEW012 SCT090 19/16 Q1005
Pressure 29.68 in
Visibility 6.2 miles
Clouds Few 1200 ft
Scattered Clouds 9000 ft
Dew Point 66 °F
Humidity 99%
Rainfall 0.15 in
Snow Depth Not available.
4:57 AM 6:13 PM
Waning Crescent, 17% visible
METAR RJSA 281000Z 04011KT 9999 FEW012 SCT090 19/16 Q1005

10-Day Weather Forecast

No radar image for this location.
×

Almanac

Astronomy

Aug. 28, 2016 Rise Set
Actual Time
Civil Twilight
Nautical Twilight
Astronomical Twilight
Moon
Length of Visible Light
Length of Day
Tomorrow will be .
, % of the Moon is Illuminated

Today's Extremes

Country Highs Country Lows

Community

WunderPhotos

Upload Photos

1,935,541 photos uploaded!

WunderBlog® & News

Nearby

Air Quality

  Air Quality AQ Index Pollutant
Not available.

Snow Depth

Station Depth Elevation

Earthquake Activity

City Distance Mag. Time & Date
Minimum magnitude displayed is 2.5.

Coastal Water Temperatures

Place Temperature

Stations

Nearby Weather Stations

Station Location Temp. Windchill Dew Point Humidity Wind Precip. Elev Updated Type